sensor_id;sensor_type;location;lat;lon;timestamp;temperature;humidity
46898;DHT22;32646;50.958;6.258;2022-11-20T00:01:12;3.00;99.90
46898;DHT22;32646;50.958;6.258;2022-11-20T00:03:39;3.00;99.90
46898;DHT22;32646;50.958;6.258;2022-11-20T00:06:09;3.10;99.90
46898;DHT22;32646;50.958;6.258;2022-11-20T00:08:36;3.00;99.90
46898;DHT22;32646;50.958;6.258;2022-11-20T00:11:07;3.10;99.90
46898;DHT22;32646;50.958;6.258;2022-11-20T00:13:41;3.00;99.90
46898;DHT22;32646;50.958;6.258;2022-11-20T00:16:09;3.00;99.90
46898;DHT22;32646;50.958;6.258;2022-11-20T00:18:36;3.00;99.90
46898;DHT22;32646;50.958;6.258;2022-11-20T00:21:04;3.00;99.90
46898;DHT22;32646;50.958;6.258;2022-11-20T00:23:31;3.10;99.90
46898;DHT22;32646;50.958;6.258;2022-11-20T00:26:02;3.10;99.90
46898;DHT22;32646;50.958;6.258;2022-11-20T00:28:29;3.10;99.90
46898;DHT22;32646;50.958;6.258;2022-11-20T00:31:22;3.20;99.90
46898;DHT22;32646;50.958;6.258;2022-11-20T00:33:49;3.20;99.90
46898;DHT22;32646;50.958;6.258;2022-11-20T00:36:18;3.20;99.90
46898;DHT22;32646;50.958;6.258;2022-11-20T00:38:46;3.20;99.90
46898;DHT22;32646;50.958;6.258;2022-11-20T00:41:14;3.20;99.90
46898;DHT22;32646;50.958;6.258;2022-11-20T00:43:42;3.20;99.90
46898;DHT22;32646;50.958;6.258;2022-11-20T00:46:20;3.20;99.90
46898;DHT22;32646;50.958;6.258;2022-11-20T00:48:47;3.10;99.90
46898;DHT22;32646;50.958;6.258;2022-11-20T00:51:18;3.10;99.90
46898;DHT22;32646;50.958;6.258;2022-11-20T00:53:46;3.10;99.90
46898;DHT22;32646;50.958;6.258;2022-11-20T00:56:15;3.10;99.90
46898;DHT22;32646;50.958;6.258;2022-11-20T00:58:43;3.10;99.90
46898;DHT22;32646;50.958;6.258;2022-11-20T01:01:14;3.10;99.90
46898;DHT22;32646;50.958;6.258;2022-11-20T01:03:42;3.00;99.90
46898;DHT22;32646;50.958;6.258;2022-11-20T01:06:13;3.00;99.90
46898;DHT22;32646;50.958;6.258;2022-11-20T01:08:40;3.00;99.90
46898;DHT22;32646;50.958;6.258;2022-11-20T01:11:10;3.00;99.90
46898;DHT22;32646;50.958;6.258;2022-11-20T01:13:37;3.00;99.90
46898;DHT22;32646;50.958;6.258;2022-11-20T01:16:19;2.90;99.90
46898;DHT22;32646;50.958;6.258;2022-11-20T01:18:48;2.90;99.90
46898;DHT22;32646;50.958;6.258;2022-11-20T01:21:17;2.90;99.90
46898;DHT22;32646;50.958;6.258;2022-11-20T01:23:45;2.80;99.90
46898;DHT22;32646;50.958;6.258;2022-11-20T01:26:14;2.80;99.90
46898;DHT22;32646;50.958;6.258;2022-11-20T01:28:41;2.80;99.90
46898;DHT22;32646;50.958;6.258;2022-11-20T01:31:20;2.80;99.90
46898;DHT22;32646;50.958;6.258;2022-11-20T01:33:49;2.80;99.90
46898;DHT22;32646;50.958;6.258;2022-11-20T01:36:18;2.80;99.90
46898;DHT22;32646;50.958;6.258;2022-11-20T01:38:45;2.80;99.90
46898;DHT22;32646;50.958;6.258;2022-11-20T01:41:13;2.80;99.90
46898;DHT22;32646;50.958;6.258;2022-11-20T01:43:40;2.80;99.90
46898;DHT22;32646;50.958;6.258;2022-11-20T01:46:18;2.80;99.90
46898;DHT22;32646;50.958;6.258;2022-11-20T01:48:55;2.80;99.90
46898;DHT22;32646;50.958;6.258;2022-11-20T01:51:45;2.80;99.90
46898;DHT22;32646;50.958;6.258;2022-11-20T01:54:39;2.80;99.90
46898;DHT22;32646;50.958;6.258;2022-11-20T01:57:07;2.70;99.90
46898;DHT22;32646;50.958;6.258;2022-11-20T01:59:42;2.70;99.90
46898;DHT22;32646;50.958;6.258;2022-11-20T02:02:10;2.80;99.90
46898;DHT22;32646;50.958;6.258;2022-11-20T02:04:37;2.70;99.90
46898;DHT22;32646;50.958;6.258;2022-11-20T02:07:05;2.80;99.90
46898;DHT22;32646;50.958;6.258;2022-11-20T02:09:31;2.80;99.90
46898;DHT22;32646;50.958;6.258;2022-11-20T02:11:58;2.80;99.90
46898;DHT22;32646;50.958;6.258;2022-11-20T02:14:26;2.80;99.90
46898;DHT22;32646;50.958;6.258;2022-11-20T02:16:54;2.80;99.90
46898;DHT22;32646;50.958;6.258;2022-11-20T02:19:30;2.80;99.90
46898;DHT22;32646;50.958;6.258;2022-11-20T02:22:14;2.80;99.90
46898;DHT22;32646;50.958;6.258;2022-11-20T02:24:43;2.80;99.90
46898;DHT22;32646;50.958;6.258;2022-11-20T02:27:13;2.90;99.90
46898;DHT22;32646;50.958;6.258;2022-11-20T02:29:53;2.90;99.90
46898;DHT22;32646;50.958;6.258;2022-11-20T02:32:32;2.80;99.90
46898;DHT22;32646;50.958;6.258;2022-11-20T02:35:07;2.80;99.90
46898;DHT22;32646;50.958;6.258;2022-11-20T02:37:37;2.90;99.90
46898;DHT22;32646;50.958;6.258;2022-11-20T02:40:05;2.90;99.90
46898;DHT22;32646;50.958;6.258;2022-11-20T02:42:32;2.90;99.90
46898;DHT22;32646;50.958;6.258;2022-11-20T02:44:58;2.90;99.90
46898;DHT22;32646;50.958;6.258;2022-11-20T02:47:25;2.90;99.90
46898;DHT22;32646;50.958;6.258;2022-11-20T02:49:51;2.90;99.90
46898;DHT22;32646;50.958;6.258;2022-11-20T02:52:18;3.00;99.90
46898;DHT22;32646;50.958;6.258;2022-11-20T02:54:45;3.00;99.90
46898;DHT22;32646;50.958;6.258;2022-11-20T02:57:11;3.00;99.90
46898;DHT22;32646;50.958;6.258;2022-11-20T02:59:38;3.00;99.90
46898;DHT22;32646;50.958;6.258;2022-11-20T03:02:04;2.90;99.90
46898;DHT22;32646;50.958;6.258;2022-11-20T03:04:31;3.00;99.90
46898;DHT22;32646;50.958;6.258;2022-11-20T03:06:57;3.00;99.90
46898;DHT22;32646;50.958;6.258;2022-11-20T03:09:24;3.00;99.90
46898;DHT22;32646;50.958;6.258;2022-11-20T03:11:50;3.10;99.90
46898;DHT22;32646;50.958;6.258;2022-11-20T03:14:17;3.10;99.90
46898;DHT22;32646;50.958;6.258;2022-11-20T03:16:44;3.10;99.90
46898;DHT22;32646;50.958;6.258;2022-11-20T03:19:11;3.20;99.90
46898;DHT22;32646;50.958;6.258;2022-11-20T03:21:38;3.20;99.90
46898;DHT22;32646;50.958;6.258;2022-11-20T03:24:05;3.20;99.90
46898;DHT22;32646;50.958;6.258;2022-11-20T03:26:32;3.20;99.90
46898;DHT22;32646;50.958;6.258;2022-11-20T03:29:00;3.20;99.90
46898;DHT22;32646;50.958;6.258;2022-11-20T03:31:33;3.20;99.90
46898;DHT22;32646;50.958;6.258;2022-11-20T03:34:00;3.20;99.90
46898;DHT22;32646;50.958;6.258;2022-11-20T03:36:28;3.20;99.90
46898;DHT22;32646;50.958;6.258;2022-11-20T03:38:56;3.20;99.90
46898;DHT22;32646;50.958;6.258;2022-11-20T03:41:25;3.20;99.90
46898;DHT22;32646;50.958;6.258;2022-11-20T03:43:54;3.20;99.90
46898;DHT22;32646;50.958;6.258;2022-11-20T03:46:22;3.20;99.90
46898;DHT22;32646;50.958;6.258;2022-11-20T03:48:49;3.20;99.90
46898;DHT22;32646;50.958;6.258;2022-11-20T03:51:20;3.30;99.90
46898;DHT22;32646;50.958;6.258;2022-11-20T03:53:48;3.40;99.90
46898;DHT22;32646;50.958;6.258;2022-11-20T03:56:17;3.30;99.90
46898;DHT22;32646;50.958;6.258;2022-11-20T03:58:44;3.30;99.90
46898;DHT22;32646;50.958;6.258;2022-11-20T04:01:14;3.30;99.90
46898;DHT22;32646;50.958;6.258;2022-11-20T04:03:41;3.30;99.90
46898;DHT22;32646;50.958;6.258;2022-11-20T04:06:11;3.30;99.90
46898;DHT22;32646;50.958;6.258;2022-11-20T04:08:38;3.30;99.90
46898;DHT22;32646;50.958;6.258;2022-11-20T04:13:35;3.40;99.90
46898;DHT22;32646;50.958;6.258;2022-11-20T04:16:02;3.30;99.90
46898;DHT22;32646;50.958;6.258;2022-11-20T04:18:29;3.30;99.90
46898;DHT22;32646;50.958;6.258;2022-11-20T04:20:57;3.30;99.90
46898;DHT22;32646;50.958;6.258;2022-11-20T04:23:24;3.30;99.90
46898;DHT22;32646;50.958;6.258;2022-11-20T04:25:54;3.30;99.90
46898;DHT22;32646;50.958;6.258;2022-11-20T04:28:21;3.40;99.90
46898;DHT22;32646;50.958;6.258;2022-11-20T04:30:47;3.40;99.90
46898;DHT22;32646;50.958;6.258;2022-11-20T04:33:14;3.40;99.90
46898;DHT22;32646;50.958;6.258;2022-11-20T04:35:40;3.50;99.90
46898;DHT22;32646;50.958;6.258;2022-11-20T04:38:07;3.40;99.90
46898;DHT22;32646;50.958;6.258;2022-11-20T04:40:33;3.40;99.90
46898;DHT22;32646;50.958;6.258;2022-11-20T04:43:00;3.50;99.90
46898;DHT22;32646;50.958;6.258;2022-11-20T04:45:26;3.40;99.90
46898;DHT22;32646;50.958;6.258;2022-11-20T04:47:53;3.50;99.90
46898;DHT22;32646;50.958;6.258;2022-11-20T04:50:19;3.40;99.90
46898;DHT22;32646;50.958;6.258;2022-11-20T04:52:46;3.40;99.90
46898;DHT22;32646;50.958;6.258;2022-11-20T04:55:12;3.40;99.90
46898;DHT22;32646;50.958;6.258;2022-11-20T04:57:39;3.40;99.90
46898;DHT22;32646;50.958;6.258;2022-11-20T05:00:06;3.40;99.90
46898;DHT22;32646;50.958;6.258;2022-11-20T05:02:32;3.40;99.90
46898;DHT22;32646;50.958;6.258;2022-11-20T05:04:59;3.40;99.90
46898;DHT22;32646;50.958;6.258;2022-11-20T05:07:26;3.40;99.90
46898;DHT22;32646;50.958;6.258;2022-11-20T05:09:52;3.40;99.90
46898;DHT22;32646;50.958;6.258;2022-11-20T05:12:19;3.40;99.90
46898;DHT22;32646;50.958;6.258;2022-11-20T05:14:45;3.50;99.90
46898;DHT22;32646;50.958;6.258;2022-11-20T05:17:12;3.50;99.90
46898;DHT22;32646;50.958;6.258;2022-11-20T05:19:38;3.50;99.90
46898;DHT22;32646;50.958;6.258;2022-11-20T05:22:05;3.50;99.90
46898;DHT22;32646;50.958;6.258;2022-11-20T05:24:31;3.40;99.90
46898;DHT22;32646;50.958;6.258;2022-11-20T05:26:58;3.40;99.90
46898;DHT22;32646;50.958;6.258;2022-11-20T05:29:24;3.40;99.90
46898;DHT22;32646;50.958;6.258;2022-11-20T05:31:51;3.40;99.90
46898;DHT22;32646;50.958;6.258;2022-11-20T05:34:18;3.30;99.90
46898;DHT22;32646;50.958;6.258;2022-11-20T05:36:44;3.30;99.90
46898;DHT22;32646;50.958;6.258;2022-11-20T05:39:10;3.30;99.90
46898;DHT22;32646;50.958;6.258;2022-11-20T05:41:37;3.20;99.90
46898;DHT22;32646;50.958;6.258;2022-11-20T05:44:04;3.20;99.90
46898;DHT22;32646;50.958;6.258;2022-11-20T05:46:30;3.20;99.90
46898;DHT22;32646;50.958;6.258;2022-11-20T05:48:57;3.20;99.90
46898;DHT22;32646;50.958;6.258;2022-11-20T05:51:25;3.20;99.90
46898;DHT22;32646;50.958;6.258;2022-11-20T05:53:51;3.20;99.90
46898;DHT22;32646;50.958;6.258;2022-11-20T05:56:20;3.20;99.90
46898;DHT22;32646;50.958;6.258;2022-11-20T05:58:47;3.20;99.90
46898;DHT22;32646;50.958;6.258;2022-11-20T06:01:20;3.20;99.90
46898;DHT22;32646;50.958;6.258;2022-11-20T06:03:48;3.20;99.90
46898;DHT22;32646;50.958;6.258;2022-11-20T06:06:15;3.10;99.90
46898;DHT22;32646;50.958;6.258;2022-11-20T06:08:42;3.20;99.90
46898;DHT22;32646;50.958;6.258;2022-11-20T06:11:10;3.10;99.90
46898;DHT22;32646;50.958;6.258;2022-11-20T06:13:38;3.10;99.90
46898;DHT22;32646;50.958;6.258;2022-11-20T06:16:08;3.20;99.90
46898;DHT22;32646;50.958;6.258;2022-11-20T06:18:34;3.10;99.90
46898;DHT22;32646;50.958;6.258;2022-11-20T06:21:21;3.10;99.90
46898;DHT22;32646;50.958;6.258;2022-11-20T06:23:48;3.10;99.90
46898;DHT22;32646;50.958;6.258;2022-11-20T06:26:20;3.00;99.90
46898;DHT22;32646;50.958;6.258;2022-11-20T06:28:48;3.00;99.90
46898;DHT22;32646;50.958;6.258;2022-11-20T06:31:16;3.00;99.90
46898;DHT22;32646;50.958;6.258;2022-11-20T06:33:44;3.00;99.90
46898;DHT22;32646;50.958;6.258;2022-11-20T06:36:12;3.00;99.90
46898;DHT22;32646;50.958;6.258;2022-11-20T06:38:39;3.00;99.90
46898;DHT22;32646;50.958;6.258;2022-11-20T06:41:10;3.00;99.90
46898;DHT22;32646;50.958;6.258;2022-11-20T06:43:36;3.10;99.90
46898;DHT22;32646;50.958;6.258;2022-11-20T06:46:03;3.10;99.90
46898;DHT22;32646;50.958;6.258;2022-11-20T06:48:31;3.10;99.90
46898;DHT22;32646;50.958;6.258;2022-11-20T06:50:58;3.10;99.90
46898;DHT22;32646;50.958;6.258;2022-11-20T06:53:24;3.10;99.90
46898;DHT22;32646;50.958;6.258;2022-11-20T06:55:52;3.10;99.90
46898;DHT22;32646;50.958;6.258;2022-11-20T06:58:18;3.10;99.90
46898;DHT22;32646;50.958;6.258;2022-11-20T07:00:45;3.10;99.90
46898;DHT22;32646;50.958;6.258;2022-11-20T07:03:12;3.10;99.90
46898;DHT22;32646;50.958;6.258;2022-11-20T07:05:39;3.00;99.90
46898;DHT22;32646;50.958;6.258;2022-11-20T07:08:06;3.00;99.90
46898;DHT22;32646;50.958;6.258;2022-11-20T07:10:33;3.00;99.90
46898;DHT22;32646;50.958;6.258;2022-11-20T07:12:59;3.00;99.90
46898;DHT22;32646;50.958;6.258;2022-11-20T07:15:26;3.00;99.90
46898;DHT22;32646;50.958;6.258;2022-11-20T07:17:53;3.10;99.90
46898;DHT22;32646;50.958;6.258;2022-11-20T07:20:19;3.10;99.90
46898;DHT22;32646;50.958;6.258;2022-11-20T07:22:46;3.10;99.90
46898;DHT22;32646;50.958;6.258;2022-11-20T07:25:13;3.10;99.90
46898;DHT22;32646;50.958;6.258;2022-11-20T07:27:39;3.20;99.90
46898;DHT22;32646;50.958;6.258;2022-11-20T07:30:06;3.10;99.90
46898;DHT22;32646;50.958;6.258;2022-11-20T07:32:32;3.10;99.90
46898;DHT22;32646;50.958;6.258;2022-11-20T07:34:59;3.10;99.90
46898;DHT22;32646;50.958;6.258;2022-11-20T07:37:25;3.10;99.90
46898;DHT22;32646;50.958;6.258;2022-11-20T07:39:52;3.20;99.90
46898;DHT22;32646;50.958;6.258;2022-11-20T07:42:18;3.30;99.90
46898;DHT22;32646;50.958;6.258;2022-11-20T07:44:45;3.30;99.90
46898;DHT22;32646;50.958;6.258;2022-11-20T07:47:11;3.30;99.90
46898;DHT22;32646;50.958;6.258;2022-11-20T07:49:38;3.40;99.90
46898;DHT22;32646;50.958;6.258;2022-11-20T07:52:04;3.50;99.90
46898;DHT22;32646;50.958;6.258;2022-11-20T07:54:31;3.50;99.90
46898;DHT22;32646;50.958;6.258;2022-11-20T07:56:57;3.50;99.90
46898;DHT22;32646;50.958;6.258;2022-11-20T07:59:24;3.60;99.90
46898;DHT22;32646;50.958;6.258;2022-11-20T08:01:50;3.60;99.90
46898;DHT22;32646;50.958;6.258;2022-11-20T08:04:17;3.60;99.90
46898;DHT22;32646;50.958;6.258;2022-11-20T08:06:43;3.60;99.90
46898;DHT22;32646;50.958;6.258;2022-11-20T08:09:10;3.50;99.90
46898;DHT22;32646;50.958;6.258;2022-11-20T08:11:36;3.60;99.90
46898;DHT22;32646;50.958;6.258;2022-11-20T08:14:03;3.60;99.90
46898;DHT22;32646;50.958;6.258;2022-11-20T08:16:30;3.60;99.90
46898;DHT22;32646;50.958;6.258;2022-11-20T08:18:56;3.60;99.90
46898;DHT22;32646;50.958;6.258;2022-11-20T08:21:23;3.60;99.90
46898;DHT22;32646;50.958;6.258;2022-11-20T08:23:49;3.70;99.90
46898;DHT22;32646;50.958;6.258;2022-11-20T08:26:16;3.70;99.90
46898;DHT22;32646;50.958;6.258;2022-11-20T08:28:42;3.70;99.90
46898;DHT22;32646;50.958;6.258;2022-11-20T08:31:09;3.70;99.90
46898;DHT22;32646;50.958;6.258;2022-11-20T08:33:36;3.60;99.90
46898;DHT22;32646;50.958;6.258;2022-11-20T08:36:04;3.70;99.90
46898;DHT22;32646;50.958;6.258;2022-11-20T08:38:32;3.80;99.90
46898;DHT22;32646;50.958;6.258;2022-11-20T08:40:59;3.90;99.90
46898;DHT22;32646;50.958;6.258;2022-11-20T08:43:26;3.90;99.90
46898;DHT22;32646;50.958;6.258;2022-11-20T08:45:53;4.00;99.90
46898;DHT22;32646;50.958;6.258;2022-11-20T08:48:19;3.90;99.90
46898;DHT22;32646;50.958;6.258;2022-11-20T08:50:46;3.90;99.90
46898;DHT22;32646;50.958;6.258;2022-11-20T08:53:14;4.00;99.90
46898;DHT22;32646;50.958;6.258;2022-11-20T08:55:41;4.00;99.90
46898;DHT22;32646;50.958;6.258;2022-11-20T08:58:07;4.10;99.90
46898;DHT22;32646;50.958;6.258;2022-11-20T09:00:34;4.10;99.90
46898;DHT22;32646;50.958;6.258;2022-11-20T09:03:01;4.10;99.90
46898;DHT22;32646;50.958;6.258;2022-11-20T09:05:28;4.20;99.90
46898;DHT22;32646;50.958;6.258;2022-11-20T09:07:58;4.40;99.90
46898;DHT22;32646;50.958;6.258;2022-11-20T09:10:25;4.50;99.90
46898;DHT22;32646;50.958;6.258;2022-11-20T09:12:53;4.70;99.90
46898;DHT22;32646;50.958;6.258;2022-11-20T09:15:20;4.70;99.90
46898;DHT22;32646;50.958;6.258;2022-11-20T09:18:01;4.80;99.90
46898;DHT22;32646;50.958;6.258;2022-11-20T09:20:29;5.00;99.90
46898;DHT22;32646;50.958;6.258;2022-11-20T09:22:56;5.00;99.90
46898;DHT22;32646;50.958;6.258;2022-11-20T09:25:23;5.00;99.90
46898;DHT22;32646;50.958;6.258;2022-11-20T09:27:59;5.00;99.90
46898;DHT22;32646;50.958;6.258;2022-11-20T09:30:26;5.10;99.90
46898;DHT22;32646;50.958;6.258;2022-11-20T09:32:54;5.00;99.90
46898;DHT22;32646;50.958;6.258;2022-11-20T09:35:20;4.80;99.90
46898;DHT22;32646;50.958;6.258;2022-11-20T09:37:49;4.80;99.90
46898;DHT22;32646;50.958;6.258;2022-11-20T09:40:21;4.90;99.90
46898;DHT22;32646;50.958;6.258;2022-11-20T09:43:15;4.90;99.90
46898;DHT22;32646;50.958;6.258;2022-11-20T09:45:56;5.00;99.90
46898;DHT22;32646;50.958;6.258;2022-11-20T09:54:23;5.00;99.90
46898;DHT22;32646;50.958;6.258;2022-11-20T09:56:56;5.10;99.90
46898;DHT22;32646;50.958;6.258;2022-11-20T09:59:55;5.20;99.90
46898;DHT22;32646;50.958;6.258;2022-11-20T10:05:21;5.20;99.90
46898;DHT22;32646;50.958;6.258;2022-11-20T10:10:47;5.10;99.90
46898;DHT22;32646;50.958;6.258;2022-11-20T10:13:49;5.20;99.90
46898;DHT22;32646;50.958;6.258;2022-11-20T10:19:12;5.30;99.90
46898;DHT22;32646;50.958;6.258;2022-11-20T10:30:09;5.20;99.90
46898;DHT22;32646;50.958;6.258;2022-11-20T10:32:46;5.10;99.90
46898;DHT22;32646;50.958;6.258;2022-11-20T10:37:45;5.00;99.90
46898;DHT22;32646;50.958;6.258;2022-11-20T10:45:44;5.20;99.90
46898;DHT22;32646;50.958;6.258;2022-11-20T10:48:26;5.30;99.90
46898;DHT22;32646;50.958;6.258;2022-11-20T10:51:08;5.40;99.90
46898;DHT22;32646;50.958;6.258;2022-11-20T10:56:23;5.60;99.90
46898;DHT22;32646;50.958;6.258;2022-11-20T11:01:42;5.60;99.90
46898;DHT22;32646;50.958;6.258;2022-11-20T11:04:37;5.50;99.90
46898;DHT22;32646;50.958;6.258;2022-11-20T11:07:14;5.40;99.90
46898;DHT22;32646;50.958;6.258;2022-11-20T11:09:47;5.40;99.90
46898;DHT22;32646;50.958;6.258;2022-11-20T11:12:14;5.50;99.90
46898;DHT22;32646;50.958;6.258;2022-11-20T11:14:46;5.40;99.90
46898;DHT22;32646;50.958;6.258;2022-11-20T11:17:28;5.40;99.90
46898;DHT22;32646;50.958;6.258;2022-11-20T11:20:07;5.40;99.90
46898;DHT22;32646;50.958;6.258;2022-11-20T11:22:49;5.40;99.90
46898;DHT22;32646;50.958;6.258;2022-11-20T11:27:52;5.40;99.90
46898;DHT22;32646;50.958;6.258;2022-11-20T11:30:20;5.40;99.90
46898;DHT22;32646;50.958;6.258;2022-11-20T11:32:47;5.50;99.90
46898;DHT22;32646;50.958;6.258;2022-11-20T11:35:27;5.40;99.90
46898;DHT22;32646;50.958;6.258;2022-11-20T11:38:03;5.60;99.90
46898;DHT22;32646;50.958;6.258;2022-11-20T11:40:32;5.60;99.90
46898;DHT22;32646;50.958;6.258;2022-11-20T11:43:05;5.70;99.90
46898;DHT22;32646;50.958;6.258;2022-11-20T11:45:32;5.60;99.90
46898;DHT22;32646;50.958;6.258;2022-11-20T11:48:00;5.60;99.90
46898;DHT22;32646;50.958;6.258;2022-11-20T11:50:29;5.60;99.90
46898;DHT22;32646;50.958;6.258;2022-11-20T11:53:18;5.60;99.90
46898;DHT22;32646;50.958;6.258;2022-11-20T12:01:07;5.70;99.90
46898;DHT22;32646;50.958;6.258;2022-11-20T12:03:39;5.80;99.90
46898;DHT22;32646;50.958;6.258;2022-11-20T12:06:11;5.80;99.90
46898;DHT22;32646;50.958;6.258;2022-11-20T12:08:49;5.70;99.90
46898;DHT22;32646;50.958;6.258;2022-11-20T12:11:29;5.80;99.90
46898;DHT22;32646;50.958;6.258;2022-11-20T12:14:20;5.90;99.90
46898;DHT22;32646;50.958;6.258;2022-11-20T12:16:47;5.80;99.90
46898;DHT22;32646;50.958;6.258;2022-11-20T12:19:14;5.90;99.90
46898;DHT22;32646;50.958;6.258;2022-11-20T12:32:41;5.70;99.90
46898;DHT22;32646;50.958;6.258;2022-11-20T12:43:27;5.80;99.90
46898;DHT22;32646;50.958;6.258;2022-11-20T12:56:50;6.00;99.90
46898;DHT22;32646;50.958;6.258;2022-11-20T13:07:45;6.10;99.90
46898;DHT22;32646;50.958;6.258;2022-11-20T13:13:35;6.10;99.90
46898;DHT22;32646;50.958;6.258;2022-11-20T13:16:15;6.10;99.90
46898;DHT22;32646;50.958;6.258;2022-11-20T13:18:43;6.10;99.90
46898;DHT22;32646;50.958;6.258;2022-11-20T13:21:18;6.10;99.90
46898;DHT22;32646;50.958;6.258;2022-11-20T13:23:45;6.20;99.90
46898;DHT22;32646;50.958;6.258;2022-11-20T13:26:22;6.20;99.90
46898;DHT22;32646;50.958;6.258;2022-11-20T13:29:08;6.30;99.90
46898;DHT22;32646;50.958;6.258;2022-11-20T13:31:36;6.50;99.90
46898;DHT22;32646;50.958;6.258;2022-11-20T13:34:06;6.50;99.90
46898;DHT22;32646;50.958;6.258;2022-11-20T13:36:33;6.50;99.90
46898;DHT22;32646;50.958;6.258;2022-11-20T13:39:00;6.50;99.90
46898;DHT22;32646;50.958;6.258;2022-11-20T13:41:29;6.50;99.90
46898;DHT22;32646;50.958;6.258;2022-11-20T13:44:44;6.50;99.90
46898;DHT22;32646;50.958;6.258;2022-11-20T13:47:02;6.40;99.90
46898;DHT22;32646;50.958;6.258;2022-11-20T13:49:34;6.40;99.90
46898;DHT22;32646;50.958;6.258;2022-11-20T14:01:11;6.20;99.90
46898;DHT22;32646;50.958;6.258;2022-11-20T14:03:41;6.20;99.90
46898;DHT22;32646;50.958;6.258;2022-11-20T14:06:48;6.20;99.90
46898;DHT22;32646;50.958;6.258;2022-11-20T14:09:30;6.20;99.90
46898;DHT22;32646;50.958;6.258;2022-11-20T14:11:57;6.20;99.90
46898;DHT22;32646;50.958;6.258;2022-11-20T14:14:26;6.20;99.90
46898;DHT22;32646;50.958;6.258;2022-11-20T14:17:08;6.20;99.90
46898;DHT22;32646;50.958;6.258;2022-11-20T14:19:35;6.20;99.90
46898;DHT22;32646;50.958;6.258;2022-11-20T14:22:14;6.10;99.90
46898;DHT22;32646;50.958;6.258;2022-11-20T14:24:41;6.20;99.90
46898;DHT22;32646;50.958;6.258;2022-11-20T14:27:19;6.20;99.90
46898;DHT22;32646;50.958;6.258;2022-11-20T14:29:49;6.20;99.90
46898;DHT22;32646;50.958;6.258;2022-11-20T14:32:18;6.20;99.90
46898;DHT22;32646;50.958;6.258;2022-11-20T14:34:48;6.10;99.90
46898;DHT22;32646;50.958;6.258;2022-11-20T14:37:21;6.20;99.90
46898;DHT22;32646;50.958;6.258;2022-11-20T14:39:52;6.20;99.90
46898;DHT22;32646;50.958;6.258;2022-11-20T14:42:23;6.30;99.90
46898;DHT22;32646;50.958;6.258;2022-11-20T14:44:52;6.30;99.90
46898;DHT22;32646;50.958;6.258;2022-11-20T14:47:25;6.60;99.90
46898;DHT22;32646;50.958;6.258;2022-11-20T14:49:53;6.70;99.90
46898;DHT22;32646;50.958;6.258;2022-11-20T14:52:23;6.70;99.90
46898;DHT22;32646;50.958;6.258;2022-11-20T14:54:52;6.70;99.90
46898;DHT22;32646;50.958;6.258;2022-11-20T15:02:41;6.50;99.90
46898;DHT22;32646;50.958;6.258;2022-11-20T15:05:08;6.50;99.90
46898;DHT22;32646;50.958;6.258;2022-11-20T15:07:37;6.40;99.90
46898;DHT22;32646;50.958;6.258;2022-11-20T15:10:09;6.30;99.90
46898;DHT22;32646;50.958;6.258;2022-11-20T15:12:39;6.30;99.90
46898;DHT22;32646;50.958;6.258;2022-11-20T15:15:11;6.20;99.90
46898;DHT22;32646;50.958;6.258;2022-11-20T15:17:40;6.20;99.90
46898;DHT22;32646;50.958;6.258;2022-11-20T15:20:13;6.10;99.90
46898;DHT22;32646;50.958;6.258;2022-11-20T15:22:40;6.20;99.90
46898;DHT22;32646;50.958;6.258;2022-11-20T15:25:19;6.20;99.90
46898;DHT22;32646;50.958;6.258;2022-11-20T15:27:49;6.10;99.90
46898;DHT22;32646;50.958;6.258;2022-11-20T15:30:19;6.10;99.90
46898;DHT22;32646;50.958;6.258;2022-11-20T15:32:46;6.10;99.90
46898;DHT22;32646;50.958;6.258;2022-11-20T15:35:14;6.10;99.90
46898;DHT22;32646;50.958;6.258;2022-11-20T15:37:41;6.10;99.90
46898;DHT22;32646;50.958;6.258;2022-11-20T15:40:08;6.20;99.90
46898;DHT22;32646;50.958;6.258;2022-11-20T15:42:35;6.20;99.90
46898;DHT22;32646;50.958;6.258;2022-11-20T15:45:03;6.20;99.90
46898;DHT22;32646;50.958;6.258;2022-11-20T15:47:32;6.20;99.90
46898;DHT22;32646;50.958;6.258;2022-11-20T15:49:59;6.20;99.90
46898;DHT22;32646;50.958;6.258;2022-11-20T15:52:26;6.10;99.90
46898;DHT22;32646;50.958;6.258;2022-11-20T15:55:04;6.10;99.90
46898;DHT22;32646;50.958;6.258;2022-11-20T15:57:35;6.10;99.90
46898;DHT22;32646;50.958;6.258;2022-11-20T16:00:02;6.10;99.90
46898;DHT22;32646;50.958;6.258;2022-11-20T16:02:29;6.10;99.90
46898;DHT22;32646;50.958;6.258;2022-11-20T16:04:55;6.10;99.90
46898;DHT22;32646;50.958;6.258;2022-11-20T16:07:22;6.10;99.90
46898;DHT22;32646;50.958;6.258;2022-11-20T16:09:48;6.10;99.90
46898;DHT22;32646;50.958;6.258;2022-11-20T16:12:15;6.10;99.90
46898;DHT22;32646;50.958;6.258;2022-11-20T16:14:41;6.10;99.90
46898;DHT22;32646;50.958;6.258;2022-11-20T16:17:08;6.10;99.90
46898;DHT22;32646;50.958;6.258;2022-11-20T16:19:34;6.10;99.90
46898;DHT22;32646;50.958;6.258;2022-11-20T16:22:01;6.10;99.90
46898;DHT22;32646;50.958;6.258;2022-11-20T16:24:29;6.10;99.90
46898;DHT22;32646;50.958;6.258;2022-11-20T16:26:56;6.10;99.90
46898;DHT22;32646;50.958;6.258;2022-11-20T16:29:22;6.10;99.90
46898;DHT22;32646;50.958;6.258;2022-11-20T16:31:49;6.00;99.90
46898;DHT22;32646;50.958;6.258;2022-11-20T16:34:16;6.10;99.90
46898;DHT22;32646;50.958;6.258;2022-11-20T16:36:44;6.10;99.90
46898;DHT22;32646;50.958;6.258;2022-11-20T16:39:11;6.10;99.90
46898;DHT22;32646;50.958;6.258;2022-11-20T16:41:38;6.10;99.90
46898;DHT22;32646;50.958;6.258;2022-11-20T16:44:09;6.10;99.90
46898;DHT22;32646;50.958;6.258;2022-11-20T16:46:36;6.10;99.90
46898;DHT22;32646;50.958;6.258;2022-11-20T16:49:05;6.10;99.90
46898;DHT22;32646;50.958;6.258;2022-11-20T16:51:35;6.10;99.90
46898;DHT22;32646;50.958;6.258;2022-11-20T16:54:03;6.20;99.90
46898;DHT22;32646;50.958;6.258;2022-11-20T16:56:30;6.20;99.90
46898;DHT22;32646;50.958;6.258;2022-11-20T16:58:58;6.30;99.90
46898;DHT22;32646;50.958;6.258;2022-11-20T17:01:26;6.30;99.90
46898;DHT22;32646;50.958;6.258;2022-11-20T17:06:23;6.40;99.90
46898;DHT22;32646;50.958;6.258;2022-11-20T17:08:50;6.50;99.90
46898;DHT22;32646;50.958;6.258;2022-11-20T17:11:18;6.60;99.90
46898;DHT22;32646;50.958;6.258;2022-11-20T17:13:45;6.60;99.90
46898;DHT22;32646;50.958;6.258;2022-11-20T17:16:14;6.60;99.90
46898;DHT22;32646;50.958;6.258;2022-11-20T17:18:41;6.60;99.90
46898;DHT22;32646;50.958;6.258;2022-11-20T17:21:07;6.70;99.90
46898;DHT22;32646;50.958;6.258;2022-11-20T17:23:35;6.80;99.90
46898;DHT22;32646;50.958;6.258;2022-11-20T17:26:08;6.80;99.90
46898;DHT22;32646;50.958;6.258;2022-11-20T17:28:36;6.90;99.90
46898;DHT22;32646;50.958;6.258;2022-11-20T17:31:10;6.90;99.90
46898;DHT22;32646;50.958;6.258;2022-11-20T17:33:39;6.90;99.90
46898;DHT22;32646;50.958;6.258;2022-11-20T17:36:07;7.00;99.90
46898;DHT22;32646;50.958;6.258;2022-11-20T17:38:34;7.00;99.90
46898;DHT22;32646;50.958;6.258;2022-11-20T17:41:12;7.00;99.90
46898;DHT22;32646;50.958;6.258;2022-11-20T17:43:40;7.10;99.90
46898;DHT22;32646;50.958;6.258;2022-11-20T17:46:12;7.10;99.90